Time;durP1;ratioP1;P1;durP2;ratioP2;P2;SDS_P1;SDS_P2;PMS_P1;PMS_P2;Temp;Humidity;BMP_temperature;BMP_pressure;BME280_temperature;BME280_humidity;BME280_pressure;Samples;Min_cycle;Max_cycle;Signal;HPM_P1;HPM_P2
2023/12/08 00:00:07;;;;;;;;;;;;;;;7.32;100.00;98157.53;4884064;29;20394;-96
2023/12/08 00:02:41;;;;;;;;;;;;;;;7.35;100.00;98160.78;4865594;29;19919;-96
2023/12/08 00:05:25;;;;;;;;;;;;;;;7.36;100.00;98168.47;4879901;29;19924;-96
2023/12/08 00:07:53;;;;;;;;;;;;;;;7.38;100.00;98171.75;4896849;29;19923;-96
2023/12/08 00:10:47;;;;;;;;;;;;;;;7.40;100.00;98172.41;4884927;29;19927;-96
2023/12/08 00:13:28;;;;;;;;;;;;;;;7.39;100.00;98170.75;4878438;29;19916;-96
2023/12/08 00:16:39;;;;;;;;;;;;;;;7.41;100.00;98178.44;4899165;29;19923;-96
2023/12/08 00:19:05;;;;;;;;;;;;;;;7.43;100.00;98182.56;4883006;29;19916;-96
2023/12/08 00:21:33;;;;;;;;;;;;;;;7.45;100.00;98185.00;4880410;29;19967;-94
2023/12/08 00:23:59;;;;;;;;;;;;;;;7.50;100.00;98185.25;4864200;29;19930;-93
2023/12/08 00:26:28;;;;;;;;;;;;;;;7.51;100.00;98181.66;4858883;29;19915;-96
2023/12/08 00:28:54;;;;;;;;;;;;;;;7.53;100.00;98181.47;4869867;29;19946;-95
2023/12/08 00:31:23;;;;;;;;;;;;;;;7.55;100.00;98180.28;4850082;29;19915;-95
2023/12/08 00:33:52;;;;;;;;;;;;;;;7.55;100.00;98176.81;4873276;29;19970;-96
2023/12/08 00:36:17;;;;;;;;;;;;;;;7.58;100.00;98184.34;4873768;29;19922;-96
2023/12/08 00:38:46;;;;;;;;;;;;;;;7.59;100.00;98186.00;4877050;29;19915;-94
2023/12/08 00:41:12;;;;;;;;;;;;;;;7.61;100.00;98170.88;4852998;29;19915;-95
2023/12/08 00:43:38;;;;;;;;;;;;;;;7.62;100.00;98183.00;4867653;29;19919;-95
2023/12/08 00:46:06;;;;;;;;;;;;;;;7.61;100.00;98186.66;4866305;29;19927;-96
2023/12/08 00:48:34;;;;;;;;;;;;;;;7.62;100.00;98188.25;4867275;29;19921;-94
2023/12/08 00:51:03;;;;;;;;;;;;;;;7.63;100.00;98183.84;4855434;29;19915;-94
2023/12/08 00:53:28;;;;;;;;;;;;;;;7.65;100.00;98181.81;4880985;29;19916;-95
2023/12/08 00:55:55;;;;;;;;;;;;;;;7.66;100.00;98188.72;4878337;29;20372;-96
2023/12/08 00:58:34;;;;;;;;;;;;;;;7.67;100.00;98187.72;4882114;29;19915;-96
2023/12/08 01:01:03;;;;;;;;;;;;;;;7.67;100.00;98185.91;4852417;29;19916;-93
2023/12/08 01:03:31;;;;;;;;;;;;;;;7.71;100.00;98193.44;4867783;29;20319;-92
2023/12/08 01:05:59;;;;;;;;;;;;;;;7.73;100.00;98197.50;4882087;29;19951;-94
2023/12/08 01:08:33;;;;;;;;;;;;;;;7.69;100.00;98194.41;4881445;29;19915;-96
2023/12/08 01:10:59;;;;;;;;;;;;;;;7.71;100.00;98181.09;4866123;29;20112;-95
2023/12/08 01:13:40;;;;;;;;;;;;;;;7.71;100.00;98191.59;4859298;29;20010;-96
2023/12/08 01:16:09;;;;;;;;;;;;;;;7.72;100.00;98187.19;4868162;29;19954;-94
2023/12/08 01:18:34;;;;;;;;;;;;;;;7.69;100.00;98191.00;4872952;29;20378;-94
2023/12/08 01:21:03;;;;;;;;;;;;;;;7.67;100.00;98185.09;4852777;29;19916;-94
2023/12/08 01:23:32;;;;;;;;;;;;;;;7.67;100.00;98187.72;4871870;29;19916;-94
2023/12/08 01:25:58;;;;;;;;;;;;;;;7.66;100.00;98184.25;4881262;29;19941;-93
2023/12/08 01:28:24;;;;;;;;;;;;;;;7.64;100.00;98180.19;4897719;29;20025;-94
2023/12/08 01:30:52;;;;;;;;;;;;;;;7.63;100.00;98182.00;4884210;29;19919;-94
2023/12/08 01:33:18;;;;;;;;;;;;;;;7.63;100.00;98181.19;4867841;29;19915;-94
2023/12/08 01:35:47;;;;;;;;;;;;;;;7.60;100.00;98179.72;4883401;29;20002;-93
2023/12/08 01:38:15;;;;;;;;;;;;;;;7.59;100.00;98185.19;4881039;29;19915;-93
2023/12/08 01:40:43;;;;;;;;;;;;;;;7.58;100.00;98186.97;4851793;29;19915;-93
2023/12/08 01:43:11;;;;;;;;;;;;;;;7.55;100.00;98182.91;4862887;29;19930;-93
2023/12/08 01:45:40;;;;;;;;;;;;;;;7.55;100.00;98185.53;4883577;29;19955;-95
2023/12/08 01:48:06;;;;;;;;;;;;;;;7.54;100.00;98183.91;4883133;29;20365;-94
2023/12/08 01:50:40;;;;;;;;;;;;;;;7.51;100.00;98188.72;4864961;29;19954;-95
2023/12/08 01:53:09;;;;;;;;;;;;;;;7.48;100.00;98194.31;4881167;29;19919;-94
2023/12/08 01:55:37;;;;;;;;;;;;;;;7.49;100.00;98186.25;4867232;29;20342;-94
2023/12/08 01:58:09;;;;;;;;;;;;;;;7.49;100.00;98191.50;4893448;29;19915;-94
2023/12/08 02:00:45;;;;;;;;;;;;;;;7.47;100.00;98190.06;4876933;29;19915;-93
2023/12/08 02:03:23;;;;;;;;;;;;;;;7.44;100.00;98199.94;4868908;29;20308;-96
2023/12/08 02:05:49;;;;;;;;;;;;;;;7.42;100.00;98198.50;4865193;29;19923;-94
2023/12/08 02:08:18;;;;;;;;;;;;;;;7.39;100.00;98197.03;4908626;29;19922;-95
2023/12/08 02:10:48;;;;;;;;;;;;;;;7.39;100.00;98197.03;4879469;29;19955;-95
2023/12/08 02:13:22;;;;;;;;;;;;;;;7.37;100.00;98204.28;4877725;29;20010;-96
2023/12/08 02:15:54;;;;;;;;;;;;;;;7.38;100.00;98207.72;4860462;29;19915;-94
2023/12/08 02:18:26;;;;;;;;;;;;;;;7.38;100.00;98194.59;4887505;29;20358;-95
2023/12/08 02:20:51;;;;;;;;;;;;;;;7.41;100.00;98216.06;4859928;29;20043;-94
2023/12/08 02:23:20;;;;;;;;;;;;;;;7.39;100.00;98220.69;4897023;29;20398;-95
2023/12/08 02:25:46;;;;;;;;;;;;;;;7.38;100.00;98211.19;4880638;29;19919;-94
2023/12/08 02:28:22;;;;;;;;;;;;;;;7.38;100.00;98218.22;4859605;29;19936;-96
2023/12/08 02:30:50;;;;;;;;;;;;;;;7.32;100.00;98215.34;4901171;29;19923;-95
2023/12/08 02:33:32;;;;;;;;;;;;;;;7.32;100.00;98215.34;4913554;29;19935;-95
2023/12/08 02:36:08;;;;;;;;;;;;;;;7.33;100.00;98229.28;4880349;29;20378;-95
2023/12/08 02:38:35;;;;;;;;;;;;;;;7.36;100.00;98230.75;4873227;29;19915;-94
2023/12/08 02:41:01;;;;;;;;;;;;;;;7.35;100.00;98227.31;4898096;29;19916;-94
2023/12/08 02:43:37;;;;;;;;;;;;;;;7.37;100.00;98219.25;4868671;29;20260;-95
2023/12/08 02:46:23;;;;;;;;;;;;;;;7.38;100.00;98223.50;4882785;29;19919;-96
2023/12/08 02:48:51;;;;;;;;;;;;;;;7.37;100.00;98225.31;4876969;29;20354;-95
2023/12/08 02:51:19;;;;;;;;;;;;;;;7.38;100.00;98232.19;4874123;29;20005;-96
2023/12/08 02:53:45;;;;;;;;;;;;;;;7.39;100.00;98225.16;4890335;29;19971;-96
2023/12/08 02:56:23;;;;;;;;;;;;;;;7.38;100.00;98234.00;4904915;29;19923;-96
2023/12/08 02:59:03;;;;;;;;;;;;;;;7.38;100.00;98236.63;4883904;29;20363;-96
2023/12/08 03:01:38;;;;;;;;;;;;;;;7.36;100.00;98234.19;4899271;29;19926;-94
2023/12/08 03:04:06;;;;;;;;;;;;;;;7.41;100.00;98236.28;4867183;29;20382;-94
2023/12/08 03:06:32;;;;;;;;;;;;;;;7.41;100.00;98245.00;4883359;29;19916;-95
2023/12/08 03:09:09;;;;;;;;;;;;;;;7.44;100.00;98246.44;4895115;29;19926;-96
2023/12/08 03:11:41;;;;;;;;;;;;;;;7.45;100.00;98238.38;4877934;29;19915;-95
2023/12/08 03:14:07;;;;;;;;;;;;;;;7.48;100.00;98249.53;4886425;29;19922;-95
2023/12/08 03:16:32;;;;;;;;;;;;;;;7.50;100.00;98243.09;4887304;29;19971;-95
2023/12/08 03:19:04;;;;;;;;;;;;;;;7.48;100.00;98246.91;4904485;29;19938;-96
2023/12/08 03:21:30;;;;;;;;;;;;;;;7.47;100.00;98237.38;4885420;29;19915;-94
2023/12/08 03:23:56;;;;;;;;;;;;;;;7.49;100.00;98241.47;4887558;29;19916;-96
2023/12/08 03:26:22;;;;;;;;;;;;;;;7.53;100.00;98249.81;4869073;29;19947;-94
2023/12/08 03:28:57;;;;;;;;;;;;;;;7.54;100.00;98238.28;4885662;29;19963;-94
2023/12/08 03:31:23;;;;;;;;;;;;;;;7.51;100.00;98255.25;4872541;29;19915;-95
2023/12/08 03:33:49;;;;;;;;;;;;;;;7.53;100.00;98247.97;4872695;29;19920;-95
2023/12/08 03:36:15;;;;;;;;;;;;;;;7.53;100.00;98242.72;4903144;29;19962;-94
2023/12/08 03:38:41;;;;;;;;;;;;;;;7.56;100.00;98246.81;4872357;29;20457;-94
2023/12/08 03:41:09;;;;;;;;;;;;;;;7.55;100.00;98248.63;4900329;29;19915;-96
2023/12/08 03:43:38;;;;;;;;;;;;;;;7.55;100.00;98256.53;4871924;29;20347;-95
2023/12/08 03:46:09;;;;;;;;;;;;;;;7.56;100.00;98249.47;4886833;29;19919;-94
2023/12/08 03:48:36;;;;;;;;;;;;;;;7.55;100.00;98258.31;4899854;29;19995;-95
2023/12/08 03:51:02;;;;;;;;;;;;;;;7.56;100.00;98259.97;4870058;29;20026;-94
2023/12/08 03:53:28;;;;;;;;;;;;;;;7.55;100.00;98261.78;4883239;29;19974;-93
2023/12/08 03:55:53;;;;;;;;;;;;;;;7.58;100.00;98271.09;4882834;29;20274;-94
2023/12/08 03:58:19;;;;;;;;;;;;;;;7.60;100.00;98268.31;4898287;29;19920;-94
2023/12/08 04:00:45;;;;;;;;;;;;;;;7.61;100.00;98269.94;4864110;29;20657;-93
2023/12/08 04:03:13;;;;;;;;;;;;;;;7.62;100.00;98271.56;4881937;29;19959;-95
2023/12/08 04:05:42;;;;;;;;;;;;;;;7.62;100.00;98264.50;4880066;29;19948;-95
2023/12/08 04:08:08;;;;;;;;;;;;;;;7.64;100.00;98266.97;4903365;29;20010;-93
2023/12/08 04:10:40;;;;;;;;;;;;;;;7.67;100.00;98269.22;4868769;29;20441;-95
2023/12/08 04:13:23;;;;;;;;;;;;;;;7.67;100.00;98259.53;4880705;29;19982;-95
2023/12/08 04:15:49;;;;;;;;;;;;;;;7.67;100.00;98258.72;4885387;29;20426;-93
2023/12/08 04:18:15;;;;;;;;;;;;;;;7.66;100.00;98252.63;4883512;29;20367;-94
2023/12/08 04:20:41;;;;;;;;;;;;;;;7.66;100.00;98249.19;4895627;29;20389;-94
2023/12/08 04:23:07;;;;;;;;;;;;;;;7.67;100.00;98253.44;4899503;29;20285;-96
2023/12/08 04:25:36;;;;;;;;;;;;;;;7.65;100.00;98253.63;4884689;29;19919;-96
2023/12/08 04:28:03;;;;;;;;;;;;;;;7.66;100.00;98252.63;4880334;29;19923;-93
2023/12/08 04:30:29;;;;;;;;;;;;;;;7.68;100.00;98250.66;4879557;29;19916;-93
2023/12/08 04:32:55;;;;;;;;;;;;;;;7.71;100.00;98249.47;4902471;29;20294;-93
2023/12/08 04:35:30;;;;;;;;;;;;;;;7.74;100.00;98253.56;4880678;29;19950;-96
2023/12/08 04:38:02;;;;;;;;;;;;;;;7.78;100.00;98260.09;4857003;29;19998;-96
2023/12/08 04:40:30;;;;;;;;;;;;;;;7.81;100.00;98263.19;4898149;29;19915;-94
2023/12/08 04:42:56;;;;;;;;;;;;;;;7.85;100.00;98268.88;4886024;29;19915;-94
2023/12/08 04:45:28;;;;;;;;;;;;;;;7.88;100.00;98270.34;4883309;29;19934;-96
2023/12/08 04:48:16;;;;;;;;;;;;;;;7.93;100.00;98270.63;4903956;29;19915;-95
2023/12/08 04:50:42;;;;;;;;;;;;;;;7.94;100.00;98274.88;4884553;29;19924;-94
2023/12/08 04:53:27;;;;;;;;;;;;;;;7.99;100.00;98276.97;4887320;29;19922;-96
2023/12/08 04:56:11;;;;;;;;;;;;;;;8.01;100.00;98272.34;4868611;29;19915;-94
2023/12/08 04:59:00;;;;;;;;;;;;;;;8.02;100.00;98274.78;4893532;29;20002;-95
2023/12/08 05:01:26;;;;;;;;;;;;;;;8.05;100.00;98276.22;4869339;29;19915;-95
2023/12/08 05:03:52;;;;;;;;;;;;;;;8.06;100.00;98275.22;4868334;29;19967;-95
2023/12/08 05:06:27;;;;;;;;;;;;;;;8.05;100.00;98274.44;4880526;29;19915;-93
2023/12/08 05:09:01;;;;;;;;;;;;;;;8.05;100.00;98261.28;4881349;29;19959;-94
2023/12/08 05:11:29;;;;;;;;;;;;;;;8.05;100.00;98266.53;4884186;29;19926;-93
2023/12/08 05:13:54;;;;;;;;;;;;;;;8.05;100.00;98274.44;4903090;29;19916;-93
2023/12/08 05:16:22;;;;;;;;;;;;;;;8.07;100.00;98275.03;4884357;29;19957;-95
2023/12/08 05:18:48;;;;;;;;;;;;;;;8.08;100.00;98278.50;4860279;29;19916;-93
2023/12/08 05:21:14;;;;;;;;;;;;;;;8.09;100.00;98276.69;4883999;29;19915;-93
2023/12/08 05:23:40;;;;;;;;;;;;;;;8.09;100.00;98274.06;4865855;29;19916;-93
2023/12/08 05:26:05;;;;;;;;;;;;;;;8.07;100.00;98272.41;4868174;29;19958;-96
2023/12/08 05:28:34;;;;;;;;;;;;;;;8.07;100.00;98264.53;4883533;29;19915;-94
2023/12/08 05:31:00;;;;;;;;;;;;;;;8.09;100.00;98274.06;4866297;29;19919;-93
2023/12/08 05:33:25;;;;;;;;;;;;;;;8.12;100.00;98278.97;4897450;29;19920;-94
2023/12/08 05:35:51;;;;;;;;;;;;;;;8.13;100.00;98263.00;4866004;29;19915;-93
2023/12/08 05:38:16;;;;;;;;;;;;;;;8.17;100.00;98268.72;4876040;29;19955;-93
2023/12/08 05:40:42;;;;;;;;;;;;;;;8.15;100.00;98274.16;4897407;29;20386;-95
2023/12/08 05:43:14;;;;;;;;;;;;;;;8.16;100.00;98277.59;4867259;29;20052;-94
2023/12/08 05:45:40;;;;;;;;;;;;;;;8.16;100.00;98272.31;4887235;29;19978;-93
2023/12/08 05:48:05;;;;;;;;;;;;;;;8.17;100.00;98273.97;4893435;29;20059;-95
2023/12/08 05:50:31;;;;;;;;;;;;;;;8.20;100.00;98268.34;4892956;29;19915;-95
2023/12/08 05:52:57;;;;;;;;;;;;;;;8.20;100.00;98265.72;4872181;29;20002;-94
2023/12/08 05:55:23;;;;;;;;;;;;;;;8.19;100.00;98274.59;4897741;29;19980;-96
2023/12/08 05:57:48;;;;;;;;;;;;;;;8.19;100.00;98269.31;4866859;29;19916;-95
2023/12/08 06:00:18;;;;;;;;;;;;;;;8.21;100.00;98269.97;4864198;29;19916;-95
2023/12/08 06:02:44;;;;;;;;;;;;;;;8.18;100.00;98265.06;4892590;29;20393;-94
2023/12/08 06:05:11;;;;;;;;;;;;;;;8.17;100.00;98258.97;4881847;29;19919;-93
2023/12/08 06:07:40;;;;;;;;;;;;;;;8.18;100.00;98276.44;4861633;29;21150;-94
2023/12/08 06:10:07;;;;;;;;;;;;;;;8.20;100.00;98263.09;4883161;29;20011;-94
2023/12/08 06:12:39;;;;;;;;;;;;;;;8.21;100.00;98264.72;4894496;29;20346;-93
2023/12/08 06:15:07;;;;;;;;;;;;;;;8.21;100.00;98277.88;4893055;29;19989;-92
2023/12/08 06:17:34;;;;;;;;;;;;;;;8.19;100.00;98277.22;4890172;29;20393;-94
2023/12/08 06:20:04;;;;;;;;;;;;;;;8.19;100.00;98278.03;4894218;29;20027;-95
2023/12/08 06:22:31;;;;;;;;;;;;;;;8.21;100.00;98282.31;4859295;29;19954;-93
2023/12/08 06:24:56;;;;;;;;;;;;;;;8.21;100.00;98277.03;4885538;29;20290;-94
2023/12/08 06:27:22;;;;;;;;;;;;;;;8.24;100.00;98266.97;4867082;29;19922;-95
2023/12/08 06:29:50;;;;;;;;;;;;;;;8.26;100.00;98274.69;4854799;29;20267;-94
2023/12/08 06:32:16;;;;;;;;;;;;;;;8.27;100.00;98274.50;4876186;29;19925;-94
2023/12/08 06:34:42;;;;;;;;;;;;;;;8.27;100.00;98282.41;4896525;29;19922;-93
2023/12/08 06:37:08;;;;;;;;;;;;;;;8.31;100.00;98277.59;4865809;29;19919;-96
2023/12/08 06:39:34;;;;;;;;;;;;;;;8.33;100.00;98280.84;4877150;29;19919;-94
2023/12/08 06:42:00;;;;;;;;;;;;;;;8.36;100.00;98274.41;4883859;29;19967;-96
2023/12/08 06:44:25;;;;;;;;;;;;;;;8.35;100.00;98281.47;4866581;29;19931;-93
2023/12/08 06:46:54;;;;;;;;;;;;;;;8.38;100.00;98275.84;4882149;29;20021;-96
2023/12/08 06:49:20;;;;;;;;;;;;;;;8.41;100.00;98278.09;4891236;29;19918;-96
2023/12/08 06:51:46;;;;;;;;;;;;;;;8.42;100.00;98281.56;4878695;29;19916;-95
2023/12/08 06:54:11;;;;;;;;;;;;;;;8.44;100.00;98285.63;4892045;29;20010;-94
2023/12/08 06:56:40;;;;;;;;;;;;;;;8.46;100.00;98285.44;4874559;29;20051;-93
2023/12/08 06:59:07;;;;;;;;;;;;;;;8.48;100.00;98285.25;4890175;29;19966;-93
2023/12/08 07:01:33;;;;;;;;;;;;;;;8.49;100.00;98279.03;4881559;29;20019;-94
2023/12/08 07:03:58;;;;;;;;;;;;;;;8.51;100.00;98279.63;4865837;29;19971;-94
2023/12/08 07:06:24;;;;;;;;;;;;;;;8.52;100.00;98281.28;4897676;29;19915;-94
2023/12/08 07:08:50;;;;;;;;;;;;;;;8.53;100.00;98294.25;4865372;29;19919;-96
2023/12/08 07:11:16;;;;;;;;;;;;;;;8.55;100.00;98281.75;4884032;29;19963;-96
2023/12/08 07:13:42;;;;;;;;;;;;;;;8.57;100.00;98286.81;4881128;29;19958;-96
2023/12/08 07:16:09;;;;;;;;;;;;;;;8.56;100.00;98285.19;4899130;29;19915;-96
2023/12/08 07:18:37;;;;;;;;;;;;;;;8.57;100.00;98294.72;4891123;29;20023;-96
2023/12/08 07:21:04;;;;;;;;;;;;;;;8.59;100.00;98294.53;4902064;29;19980;-95
2023/12/08 07:23:29;;;;;;;;;;;;;;;8.58;100.00;98285.84;4866711;29;19916;-96
2023/12/08 07:25:55;;;;;;;;;;;;;;;8.60;100.00;98291.72;4879990;29;20371;-95
2023/12/08 07:28:21;;;;;;;;;;;;;;;8.61;100.00;98303.06;4869394;29;19916;-95
2023/12/08 07:30:46;;;;;;;;;;;;;;;8.61;100.00;98297.81;4879599;29;19923;-94
2023/12/08 07:33:12;;;;;;;;;;;;;;;8.61;100.00;98301.28;4866322;29;19919;-96
2023/12/08 07:35:40;;;;;;;;;;;;;;;8.61;100.00;98300.44;4882572;29;19915;-95
2023/12/08 07:38:06;;;;;;;;;;;;;;;8.62;100.00;98308.16;4886863;29;19930;-96
2023/12/08 07:40:35;;;;;;;;;;;;;;;8.61;100.00;98309.16;4863675;29;19915;-96
2023/12/08 07:43:15;;;;;;;;;;;;;;;8.60;100.00;98310.16;4869069;29;19982;-96
2023/12/08 07:45:43;;;;;;;;;;;;;;;8.63;100.00;98316.88;4884697;29;19927;-93
2023/12/08 07:48:26;;;;;;;;;;;;;;;8.63;100.00;98324.78;4897696;29;19944;-96
2023/12/08 07:50:52;;;;;;;;;;;;;;;8.62;100.00;98325.75;4867999;29;20417;-95
2023/12/08 07:53:21;;;;;;;;;;;;;;;8.60;100.00;98323.31;4869085;29;19963;-96
2023/12/08 07:55:47;;;;;;;;;;;;;;;8.60;100.00;98323.31;4881121;29;19943;-94
2023/12/08 07:58:14;;;;;;;;;;;;;;;8.59;100.00;98324.31;4867525;29;19962;-96
2023/12/08 08:00:39;;;;;;;;;;;;;;;8.60;100.00;98327.78;4884145;29;20354;-95
2023/12/08 08:03:12;;;;;;;;;;;;;;;8.61;100.00;98324.16;4877833;29;19923;-95
2023/12/08 08:05:38;;;;;;;;;;;;;;;8.59;100.00;98337.50;4874242;29;19927;-96
2023/12/08 08:08:04;;;;;;;;;;;;;;;8.59;100.00;98334.03;4885245;29;20018;-94
2023/12/08 08:10:33;;;;;;;;;;;;;;;8.58;100.00;98335.03;4860794;29;20058;-95
2023/12/08 08:13:01;;;;;;;;;;;;;;;8.60;100.00;98340.97;4882609;29;19925;-94
2023/12/08 08:15:31;;;;;;;;;;;;;;;8.56;100.00;98346.59;4896805;29;20413;-96
2023/12/08 08:18:10;;;;;;;;;;;;;;;8.52;100.00;98337.38;4883807;29;19950;-96
2023/12/08 08:20:36;;;;;;;;;;;;;;;8.49;100.00;98332.47;4885242;29;20396;-94
2023/12/08 08:23:01;;;;;;;;;;;;;;;8.47;100.00;98346.84;4857795;29;19915;-96
2023/12/08 08:25:42;;;;;;;;;;;;;;;8.44;100.00;98342.75;4887037;29;19927;-96
2023/12/08 08:28:29;;;;;;;;;;;;;;;8.42;100.00;98345.56;4861993;29;20017;-96
2023/12/08 08:30:55;;;;;;;;;;;;;;;8.39;100.00;98335.38;4876911;29;19923;-96
2023/12/08 08:33:22;;;;;;;;;;;;;;;8.42;100.00;98334.22;4872716;29;19915;-96
2023/12/08 08:35:51;;;;;;;;;;;;;;;8.38;100.00;98336.38;4894049;29;19919;-96
2023/12/08 08:38:16;;;;;;;;;;;;;;;8.38;100.00;98346.91;4899001;29;20441;-96
2023/12/08 08:40:42;;;;;;;;;;;;;;;8.37;100.00;98337.41;4867362;29;19919;-94
2023/12/08 08:43:08;;;;;;;;;;;;;;;8.38;100.00;98339.03;4871305;29;19938;-96
2023/12/08 08:45:33;;;;;;;;;;;;;;;8.38;100.00;98348.72;4894104;29;20418;-95
2023/12/08 08:47:59;;;;;;;;;;;;;;;8.37;100.00;98350.56;4869549;29;19919;-96
2023/12/08 08:50:25;;;;;;;;;;;;;;;8.36;100.00;98340.22;4866570;29;20679;-95
2023/12/08 08:52:50;;;;;;;;;;;;;;;8.35;100.00;98354.34;4873496;29;19915;-95
2023/12/08 08:55:16;;;;;;;;;;;;;;;8.36;100.00;98350.75;4880735;29;19916;-96
2023/12/08 08:57:42;;;;;;;;;;;;;;;8.34;100.00;98350.09;4863486;29;20375;-95
2023/12/08 09:00:12;;;;;;;;;;;;;;;8.35;100.00;98356.97;4878255;29;19923;-96
2023/12/08 09:02:38;;;;;;;;;;;;;;;8.37;100.00;98357.63;4886855;29;19915;-96
2023/12/08 09:05:04;;;;;;;;;;;;;;;8.41;100.00;98361.53;4883524;29;19920;-95
2023/12/08 09:07:30;;;;;;;;;;;;;;;8.44;100.00;98361.19;4874410;29;19916;-96
2023/12/08 09:09:56;;;;;;;;;;;;;;;8.40;100.00;98349.38;4882257;29;20422;-94
2023/12/08 09:12:22;;;;;;;;;;;;;;;8.42;100.00;98352.66;4883548;29;19915;-96
2023/12/08 09:14:48;;;;;;;;;;;;;;;8.41;100.00;98361.53;4899622;29;19958;-96
2023/12/08 09:17:14;;;;;;;;;;;;;;;8.42;100.00;98363.19;4883646;29;19953;-96
2023/12/08 09:19:39;;;;;;;;;;;;;;;8.42;100.00;98355.28;4883416;29;19915;-95
2023/12/08 09:22:07;;;;;;;;;;;;;;;8.43;100.00;98363.00;4867287;29;19916;-95
2023/12/08 09:24:33;;;;;;;;;;;;;;;8.40;100.00;98373.88;4862158;29;19975;-96
2023/12/08 09:27:01;;;;;;;;;;;;;;;8.43;100.00;98368.25;4881611;29;19955;-96
2023/12/08 09:29:26;;;;;;;;;;;;;;;8.41;100.00;98364.16;4875242;29;19986;-96
2023/12/08 09:31:52;;;;;;;;;;;;;;;8.41;100.00;98370.25;4875612;29;20429;-96
2023/12/08 09:34:18;;;;;;;;;;;;;;;8.40;100.00;98371.25;4880144;29;19916;-96
2023/12/08 09:36:44;;;;;;;;;;;;;;;8.41;100.00;98380.78;4898303;29;19916;-96
2023/12/08 09:39:10;;;;;;;;;;;;;;;8.40;100.00;98378.31;4895200;29;19923;-96
2023/12/08 09:41:38;;;;;;;;;;;;;;;8.42;100.00;98385.06;4897141;29;19980;-96
2023/12/08 09:44:11;;;;;;;;;;;;;;;8.38;100.00;98380.31;4894660;29;19922;-96
2023/12/08 09:46:37;;;;;;;;;;;;;;;8.35;100.00;98378.03;4897366;29;19922;-96
2023/12/08 09:49:03;;;;;;;;;;;;;;;8.34;100.00;98390.41;4864991;29;19915;-96
2023/12/08 09:51:29;;;;;;;;;;;;;;;8.35;100.00;98391.22;4879621;29;19919;-96
2023/12/08 09:53:55;;;;;;;;;;;;;;;8.35;100.00;98385.94;4876499;29;19967;-95
2023/12/08 09:56:21;;;;;;;;;;;;;;;8.34;100.00;98387.78;4896360;29;19919;-96
2023/12/08 09:58:47;;;;;;;;;;;;;;;8.34;100.00;98393.03;4894689;29;20301;-96
2023/12/08 10:01:13;;;;;;;;;;;;;;;8.35;100.00;98386.78;4873754;29;19922;-94
2023/12/08 10:03:40;;;;;;;;;;;;;;;8.38;100.00;98396.09;4873550;29;20400;-95
2023/12/08 10:06:07;;;;;;;;;;;;;;;8.40;100.00;98396.75;4866795;29;19927;-95
2023/12/08 10:08:33;;;;;;;;;;;;;;;8.41;100.00;98401.84;4881146;29;19915;-96
2023/12/08 10:10:58;;;;;;;;;;;;;;;8.42;100.00;98405.31;4868015;29;19955;-94
2023/12/08 10:13:24;;;;;;;;;;;;;;;8.39;100.00;98410.94;4845722;29;19920;-96
2023/12/08 10:15:50;;;;;;;;;;;;;;;8.40;100.00;98412.56;4895052;29;19916;-96
2023/12/08 10:18:23;;;;;;;;;;;;;;;8.41;100.00;98430.78;4860937;29;19919;-96
2023/12/08 10:20:49;;;;;;;;;;;;;;;8.43;100.00;98426.19;4860663;29;20013;-96
2023/12/08 10:23:21;;;;;;;;;;;;;;;8.42;100.00;98421.91;4879146;29;20014;-96
2023/12/08 10:25:48;;;;;;;;;;;;;;;8.42;100.00;98436.88;4878514;29;20298;-96
2023/12/08 10:28:14;;;;;;;;;;;;;;;8.45;100.00;98428.63;4881148;29;19915;-96
2023/12/08 10:30:49;;;;;;;;;;;;;;;8.45;100.00;98426.00;4870181;29;19943;-95
2023/12/08 10:33:25;;;;;;;;;;;;;;;8.44;100.00;98443.59;4865489;29;19931;-96
2023/12/08 10:35:51;;;;;;;;;;;;;;;8.46;100.00;98430.25;4872436;29;19915;-96
2023/12/08 10:38:18;;;;;;;;;;;;;;;8.47;100.00;98445.06;4880833;29;20401;-96
2023/12/08 10:40:50;;;;;;;;;;;;;;;8.46;100.00;98443.41;4880991;29;20001;-95
2023/12/08 10:43:23;;;;;;;;;;;;;;;8.48;100.00;98444.06;4897258;29;19931;-96
2023/12/08 10:45:55;;;;;;;;;;;;;;;8.47;100.00;98439.81;4894947;29;19947;-96
2023/12/08 10:48:22;;;;;;;;;;;;;;;8.48;100.00;98449.34;4882430;29;19927;-96
2023/12/08 10:50:48;;;;;;;;;;;;;;;8.50;100.00;98441.25;4861913;29;19967;-96
2023/12/08 10:53:14;;;;;;;;;;;;;;;8.51;100.00;98441.06;4891700;29;19915;-96
2023/12/08 10:55:40;;;;;;;;;;;;;;;8.54;100.00;98451.28;4886591;29;19915;-95
2023/12/08 10:58:07;;;;;;;;;;;;;;;8.56;100.00;98451.09;4901070;29;20635;-96
2023/12/08 11:00:33;;;;;;;;;;;;;;;8.60;100.00;98446.28;4869678;29;19919;-96
2023/12/08 11:03:01;;;;;;;;;;;;;;;8.65;100.00;98451.81;4870275;29;20275;-95
2023/12/08 11:05:38;;;;;;;;;;;;;;;8.71;100.00;98450.28;4885500;29;19919;-95
2023/12/08 11:08:05;;;;;;;;;;;;;;;8.72;100.00;98452.75;4869091;29;19916;-96
2023/12/08 11:10:34;;;;;;;;;;;;;;;8.75;100.00;98451.53;4884615;29;19915;-96
2023/12/08 11:13:04;;;;;;;;;;;;;;;8.76;100.00;98442.66;4871515;29;20018;-95
2023/12/08 11:15:32;;;;;;;;;;;;;;;8.79;100.00;98448.38;4886035;29;20010;-96
2023/12/08 11:18:17;;;;;;;;;;;;;;;8.81;100.00;98442.91;4877429;29;19915;-96
2023/12/08 11:20:43;;;;;;;;;;;;;;;8.86;100.00;98450.25;4890140;29;19999;-96
2023/12/08 11:23:09;;;;;;;;;;;;;;;8.90;100.00;98449.72;4863990;29;19920;-96
2023/12/08 11:25:39;;;;;;;;;;;;;;;8.93;100.00;98448.56;4875440;29;19919;-96
2023/12/08 11:28:05;;;;;;;;;;;;;;;8.95;100.00;98443.91;4898433;29;20009;-96
2023/12/08 11:30:39;;;;;;;;;;;;;;;8.97;100.00;98435.81;4864565;29;19984;-95
2023/12/08 11:33:14;;;;;;;;;;;;;;;8.98;100.00;98448.00;4885710;29;19915;-96
2023/12/08 11:35:40;;;;;;;;;;;;;;;9.01;100.00;98437.91;4865757;29;19915;-96
2023/12/08 11:38:05;;;;;;;;;;;;;;;9.02;100.00;98439.53;4882919;29;19922;-95
2023/12/08 11:40:50;;;;;;;;;;;;;;;9.00;100.00;98449.44;4889624;29;19919;-96
2023/12/08 11:43:16;;;;;;;;;;;;;;;8.98;100.00;98435.63;4900979;29;19927;-96
2023/12/08 11:45:42;;;;;;;;;;;;;;;9.00;100.00;98446.81;4867545;29;20010;-94
2023/12/08 11:48:11;;;;;;;;;;;;;;;9.03;100.00;98451.72;4899982;29;20350;-96
2023/12/08 11:50:37;;;;;;;;;;;;;;;9.09;100.00;98446.72;4886191;29;19923;-96
2023/12/08 11:53:04;;;;;;;;;;;;;;;9.17;100.00;98447.41;4885482;29;20021;-96
2023/12/08 11:55:29;;;;;;;;;;;;;;;9.23;100.00;98443.22;4871502;29;19919;-96
2023/12/08 11:57:59;;;;;;;;;;;;;;;9.23;100.00;98440.59;4870606;29;19923;-96
2023/12/08 12:00:25;;;;;;;;;;;;;;;9.27;100.00;98430.50;4886840;29;19919;-96
2023/12/08 12:03:17;;;;;;;;;;;;;;;9.28;100.00;98435.59;4867595;29;19919;-96
2023/12/08 12:05:43;;;;;;;;;;;;;;;9.28;100.00;98440.88;4871890;29;20014;-96
2023/12/08 12:08:09;;;;;;;;;;;;;;;9.27;100.00;98428.66;4871390;29;20394;-96
2023/12/08 12:10:35;;;;;;;;;;;;;;;9.24;100.00;98434.31;4887680;29;20342;-96
2023/12/08 12:13:20;;;;;;;;;;;;;;;;;;;;;
2023/12/08 12:15:53;;;;;;;;;;;;;;;9.22;100.00;98435.50;4882276;29;19915;-96
2023/12/08 12:18:19;;;;;;;;;;;;;;;9.20;100.00;98442.78;4882404;29;19919;-95
2023/12/08 12:21:19;;;;;;;;;;;;;;;9.21;100.00;98458.41;4883537;29;19915;-96
2023/12/08 12:23:46;;;;;;;;;;;;;;;9.24;100.00;98449.31;4878219;29;19915;-95
2023/12/08 12:26:13;;;;;;;;;;;;;;;9.23;100.00;98447.69;4879055;29;19923;-96
2023/12/08 12:28:39;;;;;;;;;;;;;;;9.22;100.00;98441.59;4879219;29;20015;-96
2023/12/08 12:31:09;;;;;;;;;;;;;;;9.26;100.00;98456.03;4885722;29;19944;-96
2023/12/08 12:33:36;;;;;;;;;;;;;;;9.33;100.00;98442.13;4868929;29;19916;-96
2023/12/08 12:36:11;;;;;;;;;;;;;;;9.35;100.00;98450.66;4882922;29;19919;-96
2023/12/08 12:38:38;;;;;;;;;;;;;;;9.37;100.00;98457.38;4879370;29;20370;-96
2023/12/08 12:41:26;;;;;;;;;;;;;;;9.37;100.00;98457.38;4891659;29;19922;-95
2023/12/08 12:44:04;;;;;;;;;;;;;;;9.42;100.00;98448.91;4867999;29;19922;-95
2023/12/08 12:46:30;;;;;;;;;;;;;;;9.43;100.00;98455.81;4886589;29;19923;-96
2023/12/08 12:48:56;;;;;;;;;;;;;;;9.45;100.00;98453.81;4881687;29;20211;-95
2023/12/08 12:51:35;;;;;;;;;;;;;;;9.47;100.00;98453.63;4883511;29;19922;-96
2023/12/08 12:54:05;;;;;;;;;;;;;;;9.47;100.00;98451.81;4883245;29;20374;-95
2023/12/08 12:56:39;;;;;;;;;;;;;;;9.50;100.00;98456.72;4882479;29;19923;-95